createdAt,value
2022-08-03T00:00:26.325Z,23.67
2022-08-03T00:02:53.357Z,23.62
2022-08-03T00:05:20.119Z,23.58
2022-08-03T00:07:46.641Z,23.59
2022-08-03T00:10:17.258Z,23.63
2022-08-03T00:12:43.848Z,23.58
2022-08-03T00:15:15.182Z,23.49
2022-08-03T00:17:52.881Z,23.42
2022-08-03T00:20:21.787Z,23.47
2022-08-03T00:22:49.083Z,23.49
2022-08-03T00:25:16.027Z,23.42
2022-08-03T00:27:42.560Z,23.44
2022-08-03T00:30:09.549Z,23.42
2022-08-03T00:32:36.147Z,23.45
2022-08-03T00:35:09.231Z,23.51
2022-08-03T00:37:40.859Z,23.52
2022-08-03T00:40:13.581Z,23.55
2022-08-03T00:42:53.992Z,23.59
2022-08-03T00:45:22.932Z,23.56
2022-08-03T00:47:49.865Z,23.43
2022-08-03T00:50:17.861Z,23.32
2022-08-03T00:52:44.675Z,23.28
2022-08-03T00:55:11.941Z,23.29
2022-08-03T00:57:39.027Z,23.31
2022-08-03T01:00:07.958Z,23.24
2022-08-03T01:02:34.622Z,23.26
2022-08-03T01:05:01.171Z,23.30
2022-08-03T01:07:37.073Z,23.32
2022-08-03T01:10:12.328Z,23.38
2022-08-03T01:12:44.003Z,23.42
2022-08-03T01:15:19.690Z,23.39
2022-08-03T01:18:16.932Z,23.39
2022-08-03T01:20:47.496Z,23.37
2022-08-03T01:23:46.285Z,23.28
2022-08-03T01:26:47.678Z,23.32
2022-08-03T01:29:45.807Z,23.34
2022-08-03T01:32:58.206Z,23.37
2022-08-03T01:35:15.280Z,23.37
2022-08-03T01:37:47.788Z,23.40
2022-08-03T01:40:15.997Z,23.46
2022-08-03T01:42:45.537Z,23.52
2022-08-03T01:45:15.439Z,23.59
2022-08-03T01:47:44.657Z,23.61
2022-08-03T01:50:13.294Z,23.62
2022-08-03T01:52:42.621Z,23.64
2022-08-03T01:55:10.808Z,23.61
2022-08-03T01:58:05.300Z,23.80
2022-08-03T02:00:27.082Z,23.88
2022-08-03T02:02:56.019Z,23.96
2022-08-03T02:05:23.132Z,23.99
2022-08-03T02:07:50.874Z,24.00
2022-08-03T02:10:34.442Z,23.99
2022-08-03T02:13:05.161Z,23.98
2022-08-03T02:15:33.978Z,23.97
2022-08-03T02:18:03.076Z,24.01
2022-08-03T02:20:33.137Z,23.97
2022-08-03T02:23:00.295Z,23.89
2022-08-03T02:25:27.629Z,23.78
2022-08-03T02:28:01.853Z,23.73
2022-08-03T02:30:37.011Z,23.72
2022-08-03T02:33:05.226Z,23.73
2022-08-03T02:35:34.096Z,23.78
2022-08-03T02:38:03.850Z,23.80
2022-08-03T02:40:32.423Z,23.82
2022-08-03T02:43:08.977Z,23.82
2022-08-03T02:45:41.481Z,23.79
2022-08-03T02:48:11.763Z,23.72
2022-08-03T02:50:39.710Z,23.64
2022-08-03T02:53:07.917Z,23.61
2022-08-03T02:55:35.873Z,23.51
2022-08-03T02:58:12.685Z,23.42
2022-08-03T03:00:40.484Z,23.38
2022-08-03T03:03:08.150Z,23.41
2022-08-03T03:05:53.402Z,23.50
2022-08-03T03:08:28.478Z,23.56
2022-08-03T03:11:00.893Z,23.61
2022-08-03T03:13:30.246Z,23.66
2022-08-03T03:16:01.457Z,23.58
2022-08-03T03:18:31.005Z,23.53
2022-08-03T03:20:58.950Z,23.49
2022-08-03T03:23:28.086Z,23.55
2022-08-03T03:25:56.472Z,23.61
2022-08-03T03:28:24.106Z,23.68
2022-08-03T03:30:53.021Z,23.70
2022-08-03T03:33:20.421Z,23.69
2022-08-03T03:35:47.388Z,23.70
2022-08-03T03:38:14.037Z,23.69
2022-08-03T03:40:41.313Z,23.68
2022-08-03T03:43:09.032Z,23.67
2022-08-03T03:45:36.098Z,23.66
2022-08-03T03:48:05.379Z,23.61
2022-08-03T03:50:33.805Z,23.52
2022-08-03T03:53:00.288Z,23.43
2022-08-03T03:55:32.191Z,23.27
2022-08-03T03:57:58.794Z,23.19
2022-08-03T04:00:25.727Z,23.17
2022-08-03T04:02:52.341Z,23.07
2022-08-03T04:05:38.683Z,22.99
2022-08-03T04:08:29.313Z,22.94
2022-08-03T04:11:11.638Z,22.97
2022-08-03T04:13:42.413Z,23.02
2022-08-03T04:16:12.203Z,23.13
2022-08-03T04:18:41.255Z,23.29
2022-08-03T04:21:12.374Z,23.41
2022-08-03T04:23:44.657Z,23.52
2022-08-03T04:26:13.388Z,23.61
2022-08-03T04:28:43.440Z,23.67
2022-08-03T04:31:10.461Z,23.71
2022-08-03T04:33:39.622Z,23.74
2022-08-03T04:36:08.891Z,23.77
2022-08-03T04:38:44.474Z,23.77
2022-08-03T04:41:12.562Z,23.83
2022-08-03T04:43:41.758Z,23.89
2022-08-03T04:46:09.156Z,23.94
2022-08-03T04:48:35.917Z,23.97
2022-08-03T04:51:04.451Z,23.99
2022-08-03T04:53:31.314Z,24.10
2022-08-03T04:56:05.775Z,24.29
2022-08-03T04:58:32.956Z,24.45
2022-08-03T05:01:00.584Z,24.84
2022-08-03T05:03:27.119Z,25.50
2022-08-03T05:06:01.620Z,26.11
2022-08-03T05:08:36.134Z,26.57
2022-08-03T05:11:13.164Z,26.99
2022-08-03T05:13:39.761Z,27.50
2022-08-03T05:16:06.281Z,28.03
2022-08-03T05:18:32.892Z,28.31
2022-08-03T05:20:59.482Z,28.70
2022-08-03T05:23:26.042Z,28.90
2022-08-03T05:25:52.586Z,29.40
2022-08-03T05:28:19.305Z,29.67
2022-08-03T05:30:46.337Z,29.80
2022-08-03T05:33:13.097Z,29.10
2022-08-03T05:36:01.594Z,28.51
2022-08-03T05:38:28.644Z,28.78
2022-08-03T05:41:23.544Z,29.32
2022-08-03T05:43:46.739Z,29.86
2022-08-03T05:46:13.812Z,30.40
2022-08-03T05:48:41.269Z,30.24
2022-08-03T05:51:11.388Z,30.82
2022-08-03T05:53:39.765Z,30.93
2022-08-03T05:56:14.507Z,31.37
2022-08-03T05:58:48.287Z,31.86
2022-08-03T06:01:16.245Z,31.99
2022-08-03T06:03:43.186Z,32.26
2022-08-03T06:06:11.306Z,32.65
2022-08-03T06:08:38.212Z,32.65
2022-08-03T06:11:04.914Z,32.84
2022-08-03T06:13:32.278Z,32.88
2022-08-03T06:15:58.954Z,32.89
2022-08-03T06:18:25.794Z,32.90
2022-08-03T06:20:52.967Z,32.94
2022-08-03T06:23:19.588Z,33.16
2022-08-03T06:25:47.377Z,33.88
2022-08-03T06:28:42.578Z,33.54
2022-08-03T06:31:01.502Z,33.73
2022-08-03T06:34:22.877Z,33.45
2022-08-03T06:36:15.194Z,33.91
2022-08-03T06:38:41.784Z,33.96
2022-08-03T06:41:08.301Z,33.57
2022-08-03T06:43:37.774Z,33.61
2022-08-03T06:46:05.683Z,33.73
2022-08-03T06:48:41.496Z,34.15
2022-08-03T06:51:08.547Z,34.49
2022-08-03T06:53:35.091Z,34.45
2022-08-03T06:56:01.649Z,35.12
2022-08-03T06:58:28.243Z,34.84
2022-08-03T07:00:54.796Z,33.82
2022-08-03T07:03:21.883Z,34.34
2022-08-03T07:05:49.121Z,34.65
2022-08-03T07:08:15.686Z,34.54
2022-08-03T07:10:42.565Z,34.25
2022-08-03T07:13:09.249Z,34.82
2022-08-03T07:15:54.304Z,35.03
2022-08-03T07:18:27.620Z,34.64
2022-08-03T07:20:57.449Z,34.10
2022-08-03T07:23:24.163Z,34.13
2022-08-03T07:25:50.968Z,34.95
2022-08-03T07:28:17.673Z,35.86
2022-08-03T07:30:44.301Z,36.05
2022-08-03T07:33:11.147Z,35.08
2022-08-03T07:35:37.771Z,34.88
2022-08-03T07:38:04.346Z,35.12
2022-08-03T07:40:31.915Z,34.96
2022-08-03T07:42:59.457Z,35.80
2022-08-03T07:45:26.753Z,34.98
2022-08-03T07:47:54.229Z,34.57
2022-08-03T07:50:21.977Z,35.24
2022-08-03T07:52:49.583Z,34.43
2022-08-03T07:55:17.807Z,33.86
2022-08-03T07:57:44.571Z,34.23
2022-08-03T08:00:19.471Z,34.96
2022-08-03T08:02:46.587Z,35.10
2022-08-03T08:05:13.278Z,34.81
2022-08-03T08:07:40.471Z,34.66
2022-08-03T08:10:10.112Z,34.69
2022-08-03T08:12:38.783Z,34.74
2022-08-03T08:15:06.172Z,34.21
2022-08-03T08:17:40.829Z,34.44
2022-08-03T08:20:07.986Z,36.11
2022-08-03T08:22:35.536Z,35.47
2022-08-03T08:25:04.448Z,35.05
2022-08-03T08:28:29.705Z,36.08
2022-08-03T08:30:20.542Z,35.63
2022-08-03T08:32:48.111Z,35.28
2022-08-03T08:35:15.025Z,35.97
2022-08-03T08:37:41.683Z,35.22
2022-08-03T08:40:09.414Z,35.92
2022-08-03T08:42:47.934Z,36.43
2022-08-03T08:45:24.448Z,36.83
2022-08-03T08:47:54.711Z,37.66
2022-08-03T08:50:29.555Z,34.91
2022-08-03T08:53:00.282Z,35.93
2022-08-03T08:55:27.213Z,35.86
2022-08-03T08:58:01.641Z,34.57
2022-08-03T09:00:28.276Z,34.64
2022-08-03T09:02:54.842Z,35.93
2022-08-03T09:05:35.796Z,35.65
2022-08-03T09:08:08.349Z,34.61
2022-08-03T09:10:35.450Z,36.24
2022-08-03T09:13:02.075Z,34.63
2022-08-03T09:15:34.014Z,34.60
2022-08-03T09:18:03.964Z,36.83
2022-08-03T09:20:34.398Z,35.96
2022-08-03T09:23:44.808Z,36.34
2022-08-03T09:26:00.027Z,35.41
2022-08-03T09:28:59.439Z,34.92
2022-08-03T09:31:39.615Z,35.67
2022-08-03T09:34:12.530Z,36.21
2022-08-03T09:36:46.773Z,35.80
2022-08-03T09:39:41.446Z,35.59
2022-08-03T09:42:11.030Z,35.18
2022-08-03T09:44:49.389Z,36.12
2022-08-03T09:47:28.375Z,37.27
2022-08-03T09:50:02.103Z,36.58
2022-08-03T09:52:52.416Z,37.61
2022-08-03T09:56:35.605Z,35.88
2022-08-03T09:58:11.599Z,35.98
2022-08-03T10:00:58.200Z,36.07
2022-08-03T10:03:27.414Z,36.93
2022-08-03T10:05:59.355Z,35.21
2022-08-03T10:08:26.768Z,34.53
2022-08-03T10:10:58.613Z,35.85
2022-08-03T10:13:25.770Z,36.22
2022-08-03T10:16:23.116Z,34.96
2022-08-03T10:18:38.887Z,35.33
2022-08-03T10:21:10.420Z,35.98
2022-08-03T10:23:38.586Z,36.22
2022-08-03T10:26:08.157Z,36.22
2022-08-03T10:28:42.962Z,35.03
2022-08-03T10:31:13.923Z,34.25
2022-08-03T10:33:51.329Z,34.09
2022-08-03T10:36:24.385Z,35.16
2022-08-03T10:38:53.326Z,35.30
2022-08-03T10:41:21.979Z,35.23
2022-08-03T10:44:10.541Z,34.43
2022-08-03T10:46:44.459Z,35.53
2022-08-03T10:49:34.846Z,36.07
2022-08-03T10:52:06.578Z,35.34
2022-08-03T10:55:00.511Z,33.32
2022-08-03T10:57:50.311Z,32.99
2022-08-03T11:00:21.390Z,33.51
2022-08-03T11:03:07.297Z,33.94
2022-08-03T11:05:37.081Z,34.01
2022-08-03T11:08:20.450Z,33.83
2022-08-03T11:10:48.161Z,34.70
2022-08-03T11:13:18.789Z,33.96
2022-08-03T11:15:47.517Z,33.66
2022-08-03T11:18:15.598Z,33.40
2022-08-03T11:20:51.471Z,33.84
2022-08-03T11:24:03.321Z,34.09
2022-08-03T11:26:25.985Z,33.89
2022-08-03T11:28:52.576Z,33.58
2022-08-03T11:31:48.626Z,33.85
2022-08-03T11:34:14.469Z,34.58
2022-08-03T11:37:21.113Z,34.97
2022-08-03T11:39:50.052Z,34.39
2022-08-03T11:42:40.143Z,34.86
2022-08-03T11:45:07.777Z,35.00
2022-08-03T11:47:37.481Z,34.66
2022-08-03T11:50:19.031Z,34.69
2022-08-03T11:52:45.527Z,35.05
2022-08-03T11:55:14.331Z,35.12
2022-08-03T11:58:58.396Z,34.79
2022-08-03T12:00:32.309Z,34.82
2022-08-03T12:03:11.934Z,35.31
2022-08-03T12:05:51.353Z,35.14
2022-08-03T12:08:27.946Z,35.20
2022-08-03T12:10:56.331Z,35.11
2022-08-03T12:14:45.214Z,34.58
2022-08-03T12:16:20.105Z,34.69
2022-08-03T12:19:14.888Z,35.21
2022-08-03T12:21:56.961Z,35.08
2022-08-03T12:24:24.054Z,35.44
2022-08-03T12:26:54.519Z,35.76
2022-08-03T12:29:26.541Z,35.64
2022-08-03T12:31:53.375Z,34.71
2022-08-03T12:34:19.936Z,34.47
2022-08-03T12:36:55.828Z,34.24
2022-08-03T12:39:31.037Z,34.08
2022-08-03T12:41:57.859Z,34.07
2022-08-03T12:44:35.774Z,34.40
2022-08-03T12:47:04.394Z,34.31
2022-08-03T12:49:49.093Z,34.56
2022-08-03T12:52:16.473Z,34.96
2022-08-03T12:54:43.825Z,34.13
2022-08-03T12:57:15.690Z,34.16
2022-08-03T12:59:55.901Z,34.18
2022-08-03T13:02:25.591Z,34.68
2022-08-03T13:04:54.263Z,34.32
2022-08-03T13:07:22.019Z,34.32
2022-08-03T13:09:56.067Z,33.86
2022-08-03T13:12:27.907Z,34.73
2022-08-03T13:15:00.728Z,34.99
2022-08-03T13:17:28.201Z,35.00
2022-08-03T13:19:54.903Z,35.14
2022-08-03T13:22:22.472Z,35.13
2022-08-03T13:24:55.941Z,35.48
2022-08-03T13:28:03.721Z,35.68
2022-08-03T13:30:10.243Z,35.84
2022-08-03T13:32:37.229Z,35.69
2022-08-03T13:35:04.374Z,35.58
2022-08-03T13:37:34.699Z,35.73
2022-08-03T13:40:04.520Z,35.90
2022-08-03T13:42:34.329Z,35.97
2022-08-03T13:45:05.027Z,35.52
2022-08-03T13:47:31.695Z,35.36
2022-08-03T13:50:01.012Z,35.40
2022-08-03T13:52:30.061Z,35.56
2022-08-03T13:54:56.683Z,35.12
2022-08-03T13:58:03.395Z,34.88
2022-08-03T14:00:10.597Z,34.65
2022-08-03T14:02:38.334Z,34.45
2022-08-03T14:05:05.339Z,34.02
2022-08-03T14:07:31.929Z,33.92
2022-08-03T14:09:58.524Z,34.58
2022-08-03T14:12:25.079Z,34.55
2022-08-03T14:17:42.308Z,34.85
2022-08-03T14:20:38.568Z,34.93
2022-08-03T14:23:03.463Z,34.76
2022-08-03T14:25:31.251Z,35.11
2022-08-03T14:28:10.242Z,34.61
2022-08-03T14:30:36.793Z,34.87
2022-08-03T14:33:03.556Z,34.78
2022-08-03T14:35:35.097Z,34.53
2022-08-03T14:38:01.755Z,34.56
2022-08-03T14:40:28.316Z,34.62
2022-08-03T14:42:55.318Z,34.64
2022-08-03T14:45:21.992Z,34.51
2022-08-03T14:50:33.074Z,34.71
2022-08-03T14:50:42.837Z,34.27
2022-08-03T14:53:10.881Z,34.44
2022-08-03T14:55:38.881Z,34.38
2022-08-03T14:58:19.996Z,34.31
2022-08-03T15:00:47.565Z,34.09
2022-08-03T15:03:16.587Z,34.45
2022-08-03T15:05:44.146Z,34.77
2022-08-03T15:08:10.707Z,34.94
2022-08-03T15:10:43.854Z,35.09
2022-08-03T15:13:11.486Z,34.70
2022-08-03T15:15:38.025Z,34.27
2022-08-03T15:18:10.776Z,34.15
2022-08-03T15:20:45.069Z,34.37
2022-08-03T15:23:13.983Z,34.35
2022-08-03T15:26:31.864Z,34.36
2022-08-03T15:28:27.342Z,34.53
2022-08-03T15:30:54.369Z,34.36
2022-08-03T15:33:20.968Z,34.15
2022-08-03T15:35:47.959Z,34.49
2022-08-03T15:38:14.802Z,34.68
2022-08-03T15:40:41.638Z,34.80
2022-08-03T15:43:08.593Z,34.78
2022-08-03T15:45:36.522Z,34.59
2022-08-03T15:48:04.999Z,34.66
2022-08-03T15:50:31.582Z,34.61
2022-08-03T15:52:58.205Z,34.42
2022-08-03T15:55:25.027Z,34.46
2022-08-03T15:58:59.573Z,34.38
2022-08-03T16:00:41.407Z,34.57
2022-08-03T16:03:08.098Z,34.47
2022-08-03T16:05:35.656Z,34.56
2022-08-03T16:08:04.330Z,34.65
2022-08-03T16:10:32.648Z,34.75
2022-08-03T16:13:00.206Z,34.80
2022-08-03T16:15:26.851Z,34.75
2022-08-03T16:17:53.443Z,34.69
2022-08-03T16:20:29.703Z,34.58
2022-08-03T16:23:08.441Z,34.65
2022-08-03T16:25:41.845Z,34.61
2022-08-03T16:28:13.890Z,34.43
2022-08-03T16:30:44.215Z,34.38
2022-08-03T16:33:16.563Z,34.48
2022-08-03T16:35:46.458Z,34.53
2022-08-03T16:38:18.337Z,34.54
2022-08-03T16:40:46.984Z,34.14
2022-08-03T16:43:18.101Z,34.19
2022-08-03T16:45:46.784Z,34.21
2022-08-03T16:48:13.688Z,34.25
2022-08-03T16:50:40.250Z,34.19
2022-08-03T16:53:09.365Z,34.11
2022-08-03T16:55:48.418Z,34.08
2022-08-03T16:58:19.693Z,33.98
2022-08-03T17:01:06.374Z,33.96
2022-08-03T17:04:02.727Z,33.94
2022-08-03T17:06:55.109Z,33.90
2022-08-03T17:09:22.023Z,33.82
2022-08-03T17:11:50.147Z,33.75
2022-08-03T17:14:22.005Z,33.73
2022-08-03T17:16:52.245Z,33.75
2022-08-03T17:19:23.280Z,33.70
2022-08-03T17:22:08.823Z,33.70
2022-08-03T17:24:41.343Z,33.64
2022-08-03T17:27:18.546Z,33.54
2022-08-03T17:30:07.743Z,33.48
2022-08-03T17:32:37.144Z,33.44
2022-08-03T17:35:18.395Z,33.17
2022-08-03T17:37:57.635Z,33.15
2022-08-03T17:40:25.562Z,33.12
2022-08-03T17:42:52.614Z,32.93
2022-08-03T17:45:20.330Z,32.92
2022-08-03T17:47:57.446Z,32.90
2022-08-03T17:50:34.483Z,32.87
2022-08-03T17:53:15.705Z,32.81
2022-08-03T17:56:06.587Z,32.65
2022-08-03T17:58:59.241Z,32.48
2022-08-03T18:02:05.700Z,32.40
2022-08-03T18:04:45.456Z,32.19
2022-08-03T18:07:41.130Z,32.09
2022-08-03T18:10:11.244Z,32.02
2022-08-03T18:15:40.075Z,31.76
2022-08-03T18:18:10.590Z,31.67
2022-08-03T18:20:41.697Z,31.52
2022-08-03T18:23:25.521Z,31.40
2022-08-03T18:26:01.915Z,31.36
2022-08-03T18:28:29.159Z,31.27
2022-08-03T18:30:57.286Z,31.15
2022-08-03T18:34:17.133Z,31.13
2022-08-03T18:36:21.850Z,31.09
2022-08-03T18:38:58.385Z,31.00
2022-08-03T18:41:33.179Z,30.97
2022-08-03T18:44:08.066Z,30.94
2022-08-03T18:46:50.330Z,30.88
2022-08-03T18:49:26.037Z,30.85
2022-08-03T18:52:03.953Z,30.78
2022-08-03T18:54:46.070Z,30.74
2022-08-03T18:57:38.145Z,30.59
2022-08-03T19:00:05.545Z,30.66
2022-08-03T19:02:41.274Z,30.64
2022-08-03T19:05:18.855Z,30.61
2022-08-03T19:07:59.609Z,30.61
2022-08-03T19:10:31.446Z,30.55
2022-08-03T19:13:11.359Z,30.51
2022-08-03T19:15:51.469Z,30.45
2022-08-03T19:18:20.399Z,30.39
2022-08-03T19:20:51.080Z,30.29
2022-08-03T19:23:25.047Z,30.24
2022-08-03T19:25:53.788Z,30.13
2022-08-03T19:28:21.836Z,30.13
2022-08-03T19:30:59.196Z,30.04
2022-08-03T19:33:31.417Z,29.98
2022-08-03T19:36:18.087Z,29.78
2022-08-03T19:38:54.661Z,29.59
2022-08-03T19:41:24.776Z,29.52
2022-08-03T19:44:00.453Z,29.38
2022-08-03T19:46:33.934Z,29.25
2022-08-03T19:49:14.569Z,29.24
2022-08-03T19:52:01.863Z,29.22
2022-08-03T19:54:52.981Z,29.09
2022-08-03T19:57:29.821Z,28.96
2022-08-03T19:59:58.878Z,28.95
2022-08-03T20:02:30.820Z,28.86
2022-08-03T20:04:59.958Z,28.79
2022-08-03T20:07:28.648Z,28.68
2022-08-03T20:09:56.669Z,28.56
2022-08-03T20:12:27.551Z,28.43
2022-08-03T20:14:58.554Z,28.25
2022-08-03T20:17:54.077Z,28.16
2022-08-03T20:20:13.738Z,28.11
2022-08-03T20:22:45.616Z,28.12
2022-08-03T20:25:20.686Z,28.03
2022-08-03T20:28:07.046Z,28.01
2022-08-03T20:30:43.221Z,27.98
2022-08-03T20:33:10.188Z,27.99
2022-08-03T20:35:41.932Z,28.00
2022-08-03T20:38:12.450Z,28.02
2022-08-03T20:40:39.136Z,28.07
2022-08-03T20:43:09.230Z,28.04
2022-08-03T20:45:58.206Z,28.07
2022-08-03T20:48:23.269Z,27.99
2022-08-03T20:50:59.403Z,27.93
2022-08-03T20:53:59.698Z,27.88
2022-08-03T20:56:27.947Z,27.78
2022-08-03T20:58:55.156Z,27.60
2022-08-03T21:01:27.571Z,27.44
2022-08-03T21:03:55.820Z,27.33
2022-08-03T21:06:27.898Z,27.31
2022-08-03T21:09:04.934Z,27.18
2022-08-03T21:11:49.028Z,27.06
2022-08-03T21:12:57.247Z,31.89
2022-08-03T21:14:24.972Z,27.07
2022-08-03T21:16:56.791Z,26.97
2022-08-03T21:19:26.165Z,26.89
2022-08-03T21:21:55.302Z,26.87
2022-08-03T21:24:25.142Z,26.89
2022-08-03T21:26:54.975Z,26.78
2022-08-03T21:29:21.527Z,26.68
2022-08-03T21:31:49.303Z,26.68
2022-08-03T21:34:16.196Z,26.68
2022-08-03T21:36:43.276Z,26.58
2022-08-03T21:39:11.073Z,26.53
2022-08-03T21:41:39.796Z,26.45
2022-08-03T21:44:07.048Z,26.43
2022-08-03T21:46:39.868Z,26.32
2022-08-03T21:50:07.020Z,26.23
2022-08-03T21:51:59.513Z,26.23
2022-08-03T21:54:33.929Z,26.26
2022-08-03T21:57:04.466Z,26.23
2022-08-03T21:59:36.492Z,26.19
2022-08-03T22:02:03.474Z,26.21
2022-08-03T22:04:53.122Z,26.20
2022-08-03T22:07:19.799Z,26.20
2022-08-03T22:09:50.145Z,26.11
2022-08-03T22:12:23.777Z,26.06
2022-08-03T22:15:00.021Z,26.00
2022-08-03T22:17:55.596Z,26.00
2022-08-03T22:20:15.917Z,26.00
2022-08-03T22:22:55.193Z,26.02
2022-08-03T22:25:27.398Z,26.02
2022-08-03T22:27:54.922Z,26.04
2022-08-03T22:30:21.620Z,26.06
2022-08-03T22:32:51.847Z,26.05
2022-08-03T22:35:20.815Z,26.00
2022-08-03T22:37:52.526Z,25.95
2022-08-03T22:40:19.321Z,25.91
2022-08-03T22:42:49.310Z,25.82
2022-08-03T22:46:05.940Z,25.80
2022-08-03T22:48:07.934Z,25.84
2022-08-03T22:50:35.312Z,25.81
2022-08-03T22:53:02.097Z,25.78
2022-08-03T22:55:29.146Z,25.75
2022-08-03T22:57:56.467Z,25.77
2022-08-03T23:00:24.193Z,25.71
2022-08-03T23:02:53.829Z,25.67
2022-08-03T23:06:02.060Z,25.54
2022-08-03T23:08:14.991Z,25.55
2022-08-03T23:10:46.707Z,25.50
2022-08-03T23:13:17.803Z,25.50
2022-08-03T23:15:55.040Z,25.45
2022-08-03T23:18:23.431Z,25.50
2022-08-03T23:20:53.314Z,25.58
2022-08-03T23:23:20.978Z,25.67
2022-08-03T23:25:50.592Z,25.76
2022-08-03T23:28:18.244Z,25.81
2022-08-03T23:30:45.480Z,25.78
2022-08-03T23:33:16.214Z,25.75
2022-08-03T23:36:27.585Z,25.63
2022-08-03T23:38:47.741Z,25.50
2022-08-03T23:41:17.513Z,25.41
2022-08-03T23:43:53.571Z,25.47
2022-08-03T23:46:24.859Z,25.47
2022-08-03T23:48:51.437Z,25.52
2022-08-03T23:51:52.254Z,25.55
2022-08-03T23:54:39.539Z,25.57
2022-08-03T23:57:31.886Z,25.59
